createdAt,value
2019-06-29T00:00:47.472Z,3.83
2019-06-29T00:03:17.187Z,3.87
2019-06-29T00:05:46.177Z,4.30
2019-06-29T00:08:16.122Z,3.37
2019-06-29T00:10:45.688Z,3.90
2019-06-29T00:13:15.430Z,3.53
2019-06-29T00:15:44.656Z,4.00
2019-06-29T00:18:14.670Z,4.23
2019-06-29T00:20:44.875Z,3.87
2019-06-29T00:23:15.478Z,4.00
2019-06-29T00:25:45.034Z,4.77
2019-06-29T00:28:14.730Z,3.80
2019-06-29T00:30:44.580Z,4.10
2019-06-29T00:33:18.002Z,4.93
2019-06-29T00:35:47.648Z,4.67
2019-06-29T00:38:17.533Z,4.93
2019-06-29T00:40:46.433Z,5.10
2019-06-29T00:43:16.096Z,5.17
2019-06-29T00:45:45.922Z,4.63
2019-06-29T00:48:14.817Z,5.33
2019-06-29T00:51:02.148Z,5.60
2019-06-29T00:53:34.184Z,5.53
2019-06-29T00:56:12.001Z,5.00
2019-06-29T00:58:50.425Z,5.03
2019-06-29T01:01:22.987Z,6.37
2019-06-29T01:03:52.831Z,4.93
2019-06-29T01:06:22.375Z,5.20
2019-06-29T01:08:51.361Z,5.37
2019-06-29T01:11:27.314Z,5.20
2019-06-29T01:14:02.717Z,5.80
2019-06-29T01:16:38.443Z,5.27
2019-06-29T01:19:08.624Z,5.90
2019-06-29T01:21:42.194Z,5.67
2019-06-29T01:24:12.715Z,5.40
2019-06-29T01:26:41.610Z,5.73
2019-06-29T01:29:20.040Z,5.47
2019-06-29T01:31:49.598Z,6.00
2019-06-29T01:34:28.452Z,6.20
2019-06-29T01:36:58.007Z,5.40
2019-06-29T01:39:32.467Z,5.87
2019-06-29T01:42:02.037Z,5.50
2019-06-29T01:44:31.603Z,5.53
2019-06-29T01:47:00.982Z,5.83
2019-06-29T01:49:42.494Z,5.97
2019-06-29T01:52:11.555Z,6.00
2019-06-29T01:54:40.796Z,5.57
2019-06-29T01:57:13.630Z,6.10
2019-06-29T01:59:43.863Z,6.93
2019-06-29T02:02:22.493Z,5.87
2019-06-29T02:04:51.487Z,6.17
2019-06-29T02:07:21.230Z,6.33
2019-06-29T02:09:51.365Z,5.77
2019-06-29T02:12:20.339Z,6.30
2019-06-29T02:14:49.925Z,5.87
2019-06-29T02:17:22.526Z,5.80
2019-06-29T02:19:52.646Z,6.00
2019-06-29T02:22:23.830Z,5.90
2019-06-29T02:24:53.699Z,6.23
2019-06-29T02:27:23.370Z,5.87
2019-06-29T02:30:00.469Z,6.03
2019-06-29T02:32:30.456Z,6.13
2019-06-29T02:35:00.074Z,6.90
2019-06-29T02:37:44.755Z,6.60
2019-06-29T02:40:22.056Z,6.83
2019-06-29T02:42:51.047Z,7.13
2019-06-29T02:45:20.052Z,6.77
2019-06-29T02:47:49.599Z,6.57
2019-06-29T02:50:23.865Z,6.47
2019-06-29T02:52:53.972Z,6.47
2019-06-29T02:55:38.514Z,6.43
2019-06-29T02:58:00.481Z,6.67
2019-06-29T03:00:30.034Z,6.90
2019-06-29T03:05:46.591Z,7.30
2019-06-29T03:08:19.607Z,6.87
2019-06-29T03:10:48.507Z,6.73
2019-06-29T03:13:18.956Z,6.63
2019-06-29T03:15:49.590Z,6.40
2019-06-29T03:18:19.239Z,6.23
2019-06-29T03:20:48.165Z,6.37
2019-06-29T03:23:18.274Z,6.03
2019-06-29T03:25:57.398Z,7.03
2019-06-29T03:28:26.987Z,5.77
2019-06-29T03:30:57.230Z,6.20
2019-06-29T03:33:27.168Z,6.17
2019-06-29T03:35:56.698Z,6.03
2019-06-29T03:38:25.586Z,5.73
2019-06-29T03:40:55.242Z,5.67
2019-06-29T03:43:24.150Z,5.90
2019-06-29T03:45:54.202Z,6.53
2019-06-29T03:48:23.180Z,5.17
2019-06-29T03:50:52.092Z,5.40
2019-06-29T03:53:20.992Z,5.10
2019-06-29T03:55:50.913Z,5.00
2019-06-29T03:58:20.578Z,5.57
2019-06-29T04:00:53.633Z,5.77
2019-06-29T04:03:33.998Z,5.93
2019-06-29T04:06:09.503Z,5.40
2019-06-29T04:08:54.977Z,5.57
2019-06-29T04:11:41.859Z,5.50
2019-06-29T04:14:23.537Z,5.50
2019-06-29T04:16:54.423Z,5.47
2019-06-29T04:19:29.102Z,5.87
2019-06-29T04:22:03.028Z,5.97
2019-06-29T04:24:54.150Z,5.80
2019-06-29T04:27:47.881Z,5.57
2019-06-29T04:30:29.617Z,5.40
2019-06-29T04:33:03.354Z,5.77
2019-06-29T04:35:57.362Z,5.67
2019-06-29T04:38:44.484Z,5.60
2019-06-29T04:41:25.014Z,5.57
2019-06-29T04:43:54.891Z,5.70
2019-06-29T04:46:23.770Z,6.30
2019-06-29T04:48:53.459Z,5.67
2019-06-29T04:51:23.046Z,5.43
2019-06-29T04:53:52.408Z,6.20
2019-06-29T04:56:21.437Z,5.67
2019-06-29T04:58:52.302Z,5.43
2019-06-29T05:01:21.920Z,5.70
2019-06-29T05:03:50.909Z,5.77
2019-06-29T05:06:20.432Z,6.03
2019-06-29T05:09:05.610Z,5.07
2019-06-29T05:11:35.178Z,5.30
2019-06-29T05:14:05.104Z,5.37
2019-06-29T05:16:34.785Z,5.30
2019-06-29T05:19:04.352Z,5.83
2019-06-29T05:21:34.197Z,5.47
2019-06-29T05:24:07.694Z,6.43
2019-06-29T05:26:34.897Z,5.77
2019-06-29T05:29:04.741Z,6.37
2019-06-29T05:31:39.324Z,5.40
2019-06-29T05:34:06.497Z,5.80
2019-06-29T05:36:35.378Z,5.53
2019-06-29T05:39:05.352Z,6.17
2019-06-29T05:41:41.582Z,6.20
2019-06-29T05:44:11.282Z,5.70
2019-06-29T05:46:40.854Z,4.97
2019-06-29T05:49:09.739Z,5.37
2019-06-29T05:51:39.588Z,5.27
2019-06-29T05:54:09.191Z,5.20
2019-06-29T05:56:39.043Z,5.30
2019-06-29T05:59:08.024Z,5.72
2019-06-29T06:01:45.679Z,5.53
2019-06-29T06:04:19.625Z,5.30
2019-06-29T06:06:53.696Z,5.42
2019-06-29T06:09:23.398Z,5.67
2019-06-29T06:11:53.863Z,5.20
2019-06-29T06:14:22.718Z,6.08
2019-06-29T06:16:52.394Z,5.17
2019-06-29T06:19:22.287Z,5.53
2019-06-29T06:22:09.431Z,5.65
2019-06-29T06:24:39.087Z,5.47
2019-06-29T06:27:09.251Z,5.50
2019-06-29T06:29:38.953Z,6.08
2019-06-29T06:32:08.466Z,6.00
2019-06-29T06:34:37.410Z,6.17
2019-06-29T06:37:06.422Z,6.15
2019-06-29T06:39:35.982Z,5.72
2019-06-29T06:42:05.808Z,5.60
2019-06-29T06:44:34.802Z,6.08
2019-06-29T06:47:04.467Z,6.25
2019-06-29T06:49:35.345Z,5.37
2019-06-29T06:52:04.340Z,5.53
2019-06-29T06:54:36.971Z,5.95
2019-06-29T06:57:06.513Z,5.80
2019-06-29T06:59:36.511Z,5.12
2019-06-29T07:02:08.959Z,5.33
2019-06-29T07:04:39.174Z,5.12
2019-06-29T07:07:09.118Z,5.17
2019-06-29T07:09:38.006Z,5.17
2019-06-29T07:12:10.483Z,5.28
2019-06-29T07:14:39.550Z,5.55
2019-06-29T07:17:08.715Z,5.10
2019-06-29T07:19:37.607Z,5.08
2019-06-29T07:22:07.207Z,5.25
2019-06-29T07:24:36.782Z,5.58
2019-06-29T07:27:05.948Z,4.60
2019-06-29T07:29:34.878Z,5.53
2019-06-29T07:32:04.459Z,5.20
2019-06-29T07:34:33.602Z,4.70
2019-06-29T07:37:04.561Z,4.95
2019-06-29T07:39:34.231Z,5.03
2019-06-29T07:42:03.798Z,4.60
2019-06-29T07:44:33.742Z,5.20
2019-06-29T07:47:02.931Z,4.87
2019-06-29T07:49:32.732Z,4.58
2019-06-29T07:52:06.405Z,5.40
2019-06-29T07:54:39.787Z,4.90
2019-06-29T07:57:09.334Z,4.62
2019-06-29T08:02:35.336Z,5.03
2019-06-29T08:05:05.424Z,4.97
2019-06-29T08:07:35.309Z,5.17
2019-06-29T08:10:05.529Z,4.67
2019-06-29T08:12:34.545Z,4.47
2019-06-29T08:15:04.217Z,4.65
2019-06-29T08:17:35.386Z,5.05
2019-06-29T08:20:05.002Z,4.03
2019-06-29T08:22:33.886Z,4.83
2019-06-29T08:25:07.694Z,4.60
2019-06-29T08:27:37.758Z,4.75
2019-06-29T08:30:07.722Z,4.60
2019-06-29T08:32:36.754Z,4.42
2019-06-29T08:35:05.961Z,4.55
2019-06-29T08:37:36.505Z,4.40
2019-06-29T08:40:07.004Z,4.10
2019-06-29T08:42:36.348Z,4.30
2019-06-29T08:45:08.035Z,4.53
2019-06-29T08:47:37.714Z,3.62
2019-06-29T08:50:07.301Z,3.87
2019-06-29T08:52:36.864Z,4.60
2019-06-29T08:55:16.161Z,4.08
2019-06-29T08:57:52.173Z,3.85
2019-06-29T09:00:26.698Z,4.08
2019-06-29T09:03:03.927Z,4.17
2019-06-29T09:05:42.818Z,4.58
2019-06-29T09:08:12.411Z,3.90
2019-06-29T09:10:41.425Z,3.65
2019-06-29T09:13:10.931Z,4.03
2019-06-29T09:15:40.497Z,4.37
2019-06-29T09:18:19.330Z,4.00
2019-06-29T09:20:49.168Z,3.62
2019-06-29T09:23:18.715Z,3.62
2019-06-29T09:25:47.647Z,3.80
2019-06-29T09:28:17.624Z,3.67
2019-06-29T09:30:46.510Z,3.30
2019-06-29T09:33:16.021Z,3.77
2019-06-29T09:35:45.883Z,3.62
2019-06-29T09:38:15.550Z,3.77
2019-06-29T09:40:46.668Z,4.03
2019-06-29T09:43:24.422Z,3.75
2019-06-29T09:45:54.908Z,3.50
2019-06-29T09:48:24.454Z,3.77
2019-06-29T09:51:02.414Z,3.77
2019-06-29T09:53:35.147Z,3.90
2019-06-29T09:56:11.943Z,3.85
2019-06-29T09:58:41.657Z,4.12
2019-06-29T10:01:12.563Z,3.42
2019-06-29T10:03:45.259Z,3.92
2019-06-29T10:06:14.451Z,3.20
2019-06-29T10:08:52.626Z,4.15
2019-06-29T10:11:22.378Z,3.35
2019-06-29T10:13:56.729Z,3.70
2019-06-29T10:16:26.396Z,3.67
2019-06-29T10:18:55.954Z,3.22
2019-06-29T10:21:25.794Z,3.62
2019-06-29T10:23:55.468Z,3.15
2019-06-29T10:26:25.761Z,3.35
2019-06-29T10:28:54.874Z,3.42
2019-06-29T10:31:24.740Z,3.08
2019-06-29T10:33:54.297Z,3.10
2019-06-29T10:36:23.887Z,2.87
2019-06-29T10:38:53.540Z,3.25
2019-06-29T10:41:23.533Z,3.17
2019-06-29T10:43:53.950Z,3.00
2019-06-29T10:46:23.750Z,3.30
2019-06-29T10:48:53.638Z,3.40
2019-06-29T10:51:23.273Z,3.08
2019-06-29T10:54:12.054Z,2.62
2019-06-29T10:56:41.405Z,3.05
2019-06-29T10:59:17.797Z,3.60
2019-06-29T11:01:46.695Z,2.95
2019-06-29T11:04:16.270Z,2.90
2019-06-29T11:06:46.211Z,2.70
2019-06-29T11:09:22.204Z,2.40
2019-06-29T11:11:56.418Z,2.77
2019-06-29T11:14:22.854Z,2.72
2019-06-29T11:16:51.741Z,2.65
2019-06-29T11:19:26.369Z,2.75
2019-06-29T11:21:53.497Z,3.17
2019-06-29T11:24:38.758Z,2.87
2019-06-29T11:26:58.386Z,2.50
2019-06-29T11:29:24.188Z,2.92
2019-06-29T11:31:53.302Z,2.98
2019-06-29T11:34:23.367Z,2.77
2019-06-29T11:36:52.898Z,3.25
2019-06-29T11:39:27.467Z,2.47
2019-06-29T11:41:57.040Z,2.40
2019-06-29T11:44:26.897Z,2.55
2019-06-29T11:46:56.716Z,2.85
2019-06-29T11:49:26.277Z,2.87
2019-06-29T11:51:55.894Z,2.80
2019-06-29T11:54:25.439Z,2.60
2019-06-29T11:56:55.014Z,2.87
2019-06-29T11:59:24.254Z,2.70
2019-06-29T12:01:53.873Z,3.02
2019-06-29T12:04:23.443Z,2.70
2019-06-29T12:06:54.821Z,2.40
2019-06-29T12:09:24.774Z,2.72
2019-06-29T12:11:54.330Z,3.15
2019-06-29T12:14:23.897Z,3.17
2019-06-29T12:16:53.877Z,3.12
2019-06-29T12:19:25.698Z,3.02
2019-06-29T12:21:54.617Z,2.60
2019-06-29T12:24:25.164Z,3.17
2019-06-29T12:26:58.834Z,2.77
2019-06-29T12:29:34.605Z,2.90
2019-06-29T12:31:59.532Z,2.80
2019-06-29T12:34:34.168Z,2.27
2019-06-29T12:37:02.794Z,2.92
2019-06-29T12:40:03.287Z,2.40
2019-06-29T12:42:38.367Z,2.98
2019-06-29T12:45:07.458Z,2.80
2019-06-29T12:47:42.350Z,2.87
2019-06-29T12:50:14.875Z,2.58
2019-06-29T12:52:42.379Z,2.65
2019-06-29T12:55:11.999Z,2.40
2019-06-29T12:57:45.006Z,2.80
2019-06-29T13:00:12.740Z,2.72
2019-06-29T13:02:42.327Z,2.92
2019-06-29T13:05:11.566Z,2.70
2019-06-29T13:07:49.143Z,2.77
2019-06-29T13:10:19.535Z,2.70
2019-06-29T13:12:48.586Z,2.83
2019-06-29T13:15:18.158Z,2.85
2019-06-29T13:17:47.165Z,3.10
2019-06-29T13:20:16.255Z,2.77
2019-06-29T13:22:45.873Z,2.85
2019-06-29T13:25:14.883Z,3.08
2019-06-29T13:27:44.472Z,2.77
2019-06-29T13:30:14.324Z,3.95
2019-06-29T13:32:49.006Z,10.98
2019-06-29T13:35:14.973Z,4.12
2019-06-29T13:37:43.897Z,13.53
2019-06-29T13:40:13.885Z,7.03
2019-06-29T13:42:50.108Z,2.40
2019-06-29T13:45:20.560Z,7.05
2019-06-29T13:47:50.145Z,6.25
2019-06-29T13:50:20.989Z,4.80
2019-06-29T13:52:50.867Z,2.70
2019-06-29T13:55:20.581Z,2.67
2019-06-29T13:57:50.115Z,2.90
2019-06-29T14:00:24.019Z,2.83
2019-06-29T14:02:53.658Z,2.90
2019-06-29T14:05:22.599Z,3.72
2019-06-29T14:07:58.399Z,2.77
2019-06-29T14:10:34.969Z,3.00
2019-06-29T14:13:13.478Z,3.10
2019-06-29T14:15:43.042Z,2.60
2019-06-29T14:18:16.522Z,2.30
2019-06-29T14:20:48.483Z,2.50
2019-06-29T14:23:18.043Z,2.37
2019-06-29T14:25:49.175Z,2.55
2019-06-29T14:28:28.136Z,2.60
2019-06-29T14:30:57.229Z,2.40
2019-06-29T14:33:35.832Z,2.50
2019-06-29T14:36:05.660Z,2.83
2019-06-29T14:38:35.269Z,2.20
2019-06-29T14:41:12.756Z,2.87
2019-06-29T14:43:35.910Z,3.00
2019-06-29T14:48:55.309Z,2.80
2019-06-29T14:51:25.149Z,6.67
2019-06-29T14:54:01.371Z,6.33
2019-06-29T14:56:30.975Z,3.02
2019-06-29T14:59:04.625Z,3.30
2019-06-29T15:01:33.813Z,2.87
2019-06-29T15:04:02.751Z,3.50
2019-06-29T15:06:32.686Z,3.37
2019-06-29T15:09:08.402Z,3.45
2019-06-29T15:11:40.628Z,3.70
2019-06-29T15:14:10.975Z,3.55
2019-06-29T15:16:39.913Z,3.45
2019-06-29T15:19:09.632Z,3.33
2019-06-29T15:21:39.194Z,3.22
2019-06-29T15:24:10.800Z,3.58
2019-06-29T15:26:39.777Z,3.77
2019-06-29T15:29:09.620Z,3.60
2019-06-29T15:31:39.163Z,3.00
2019-06-29T15:34:19.471Z,2.72
2019-06-29T15:36:39.377Z,2.87
2019-06-29T15:39:08.918Z,2.77
2019-06-29T15:41:37.910Z,2.80
2019-06-29T15:44:06.821Z,3.12
2019-06-29T15:46:37.253Z,3.00
2019-06-29T15:49:06.294Z,2.65
2019-06-29T15:51:45.118Z,3.60
2019-06-29T15:54:20.250Z,3.62
2019-06-29T15:56:54.322Z,3.90
2019-06-29T15:59:33.052Z,3.30
2019-06-29T16:02:01.982Z,3.42
2019-06-29T16:04:33.555Z,3.00
2019-06-29T16:07:03.233Z,3.65
2019-06-29T16:09:33.831Z,3.08
2019-06-29T16:12:02.742Z,3.30
2019-06-29T16:14:32.039Z,3.50
2019-06-29T16:17:00.934Z,3.30
2019-06-29T16:19:30.499Z,3.22
2019-06-29T16:22:17.412Z,3.35
2019-06-29T16:24:46.298Z,3.27
2019-06-29T16:27:19.247Z,3.40
2019-06-29T16:29:57.879Z,3.85
2019-06-29T16:32:26.752Z,3.30
2019-06-29T16:34:56.311Z,4.00
2019-06-29T16:37:26.317Z,3.90
2019-06-29T16:40:05.173Z,3.90
2019-06-29T16:42:34.258Z,3.80
2019-06-29T16:45:04.327Z,3.70
2019-06-29T16:47:33.215Z,3.05
2019-06-29T16:50:07.514Z,3.95
2019-06-29T16:52:36.410Z,3.55
2019-06-29T16:55:05.338Z,3.98
2019-06-29T16:57:36.391Z,3.87
2019-06-29T17:00:12.482Z,3.52
2019-06-29T17:02:42.335Z,3.40
2019-06-29T17:05:12.058Z,3.15
2019-06-29T17:07:41.690Z,15.85
2019-06-29T17:10:11.588Z,5.42
2019-06-29T17:12:41.167Z,6.00
2019-06-29T17:15:11.423Z,8.00
2019-06-29T17:17:41.075Z,5.47
2019-06-29T17:20:10.725Z,4.58
2019-06-29T17:22:49.263Z,4.20
2019-06-29T17:25:19.258Z,4.05
2019-06-29T17:27:49.149Z,4.42
2019-06-29T17:30:20.540Z,4.40
2019-06-29T17:32:49.464Z,3.90
2019-06-29T17:35:24.261Z,4.05
2019-06-29T17:37:51.598Z,4.05
2019-06-29T17:40:21.532Z,4.35
2019-06-29T17:42:50.438Z,4.87
2019-06-29T17:45:19.471Z,4.40
2019-06-29T17:47:48.398Z,4.62
2019-06-29T17:50:18.276Z,3.95
2019-06-29T17:52:47.289Z,4.20
2019-06-29T17:55:17.278Z,4.30
2019-06-29T17:57:46.161Z,3.95
2019-06-29T18:00:23.108Z,3.98
2019-06-29T18:02:52.858Z,3.80
2019-06-29T18:05:22.440Z,3.98
2019-06-29T18:07:57.549Z,3.52
2019-06-29T18:10:26.629Z,3.95
2019-06-29T18:12:56.188Z,3.67
2019-06-29T18:15:26.318Z,3.75
2019-06-29T18:17:55.879Z,4.03
2019-06-29T18:20:25.936Z,3.58
2019-06-29T18:22:55.539Z,3.70
2019-06-29T18:25:25.083Z,3.60
2019-06-29T18:27:54.647Z,4.40
2019-06-29T18:30:33.048Z,4.55
2019-06-29T18:33:01.995Z,4.45
2019-06-29T18:35:31.543Z,3.65
2019-06-29T18:38:03.193Z,4.22
2019-06-29T18:40:33.077Z,4.87
2019-06-29T18:43:01.990Z,4.33
2019-06-29T18:45:30.973Z,3.80
2019-06-29T18:48:00.654Z,3.70
2019-06-29T18:50:29.550Z,3.60
2019-06-29T18:52:59.246Z,3.35
2019-06-29T18:55:28.822Z,3.50
2019-06-29T18:57:58.850Z,4.00
2019-06-29T19:00:28.614Z,3.70
2019-06-29T19:03:00.485Z,3.83
2019-06-29T19:05:29.384Z,3.95
2019-06-29T19:07:59.319Z,3.40
2019-06-29T19:10:28.529Z,3.80
2019-06-29T19:12:59.496Z,4.17
2019-06-29T19:15:28.934Z,3.80
2019-06-29T19:17:58.510Z,4.20
2019-06-29T19:20:28.498Z,4.03
2019-06-29T19:22:58.182Z,3.70
2019-06-29T19:25:27.768Z,3.77
2019-06-29T19:27:57.386Z,3.50
2019-06-29T19:30:26.434Z,3.60
2019-06-29T19:32:56.012Z,3.72
2019-06-29T19:35:25.955Z,3.87
2019-06-29T19:37:54.937Z,3.80
2019-06-29T19:40:25.037Z,4.00
2019-06-29T19:42:54.591Z,3.80
2019-06-29T19:45:24.560Z,4.05
2019-06-29T19:47:53.457Z,3.58
2019-06-29T19:50:22.700Z,3.52
2019-06-29T19:53:01.734Z,3.50
2019-06-29T19:55:32.498Z,4.00
2019-06-29T19:58:01.484Z,3.77
2019-06-29T20:00:35.855Z,3.42
2019-06-29T20:03:05.729Z,3.90
2019-06-29T20:05:35.483Z,3.35
2019-06-29T20:08:11.564Z,4.05
2019-06-29T20:10:37.299Z,3.60
2019-06-29T20:13:10.649Z,3.95
2019-06-29T20:15:38.256Z,3.72
2019-06-29T20:18:07.170Z,3.65
2019-06-29T20:23:38.965Z,3.77
2019-06-29T20:26:07.948Z,3.77
2019-06-29T20:28:37.327Z,3.95
2019-06-29T20:31:07.142Z,3.62
2019-06-29T20:33:36.808Z,3.52
2019-06-29T20:36:11.470Z,3.90
2019-06-29T20:38:41.193Z,4.87
2019-06-29T20:41:10.742Z,3.52
2019-06-29T20:43:39.980Z,3.70
2019-06-29T20:46:09.621Z,3.50
2019-06-29T20:48:41.319Z,3.98
2019-06-29T20:51:10.873Z,4.17
2019-06-29T20:53:40.525Z,3.80
2019-06-29T20:56:10.082Z,3.90
2019-06-29T20:58:45.037Z,3.87
2019-06-29T21:01:14.400Z,3.90
2019-06-29T21:03:45.350Z,3.80
2019-06-29T21:06:14.703Z,3.58
2019-06-29T21:08:45.206Z,3.67
2019-06-29T21:11:14.574Z,3.98
2019-06-29T21:13:44.131Z,3.90
2019-06-29T21:16:13.822Z,4.17
2019-06-29T21:18:43.422Z,3.83
2019-06-29T21:21:13.258Z,3.65
2019-06-29T21:23:43.680Z,3.40
2019-06-29T21:26:13.334Z,3.92
2019-06-29T21:28:42.895Z,3.40
2019-06-29T21:31:12.862Z,3.50
2019-06-29T21:33:41.752Z,3.45
2019-06-29T21:36:10.665Z,3.85
2019-06-29T21:38:40.470Z,3.75
2019-06-29T21:41:10.055Z,3.27
2019-06-29T21:43:39.046Z,3.72
2019-06-29T21:46:08.010Z,3.65
2019-06-29T21:48:37.592Z,3.55
2019-06-29T21:51:06.510Z,3.80
2019-06-29T21:53:45.688Z,3.60
2019-06-29T21:56:16.159Z,3.92
2019-06-29T21:58:45.710Z,3.72
2019-06-29T22:01:16.698Z,3.65
2019-06-29T22:03:46.932Z,3.33
2019-06-29T22:06:21.548Z,7.90
2019-06-29T22:08:50.717Z,3.70
2019-06-29T22:11:21.148Z,3.72
2019-06-29T22:13:50.404Z,3.70
2019-06-29T22:16:32.522Z,3.67
2019-06-29T22:19:02.568Z,3.90
2019-06-29T22:21:41.667Z,3.42
2019-06-29T22:24:17.432Z,3.95
2019-06-29T22:26:46.433Z,3.65
2019-06-29T22:29:19.630Z,3.65
2019-06-29T22:31:50.039Z,3.80
2019-06-29T22:34:19.702Z,3.77
2019-06-29T22:36:49.236Z,3.17
2019-06-29T22:39:18.807Z,3.55
2019-06-29T22:41:47.790Z,3.52
2019-06-29T22:44:17.347Z,3.67
2019-06-29T22:46:46.586Z,3.47
2019-06-29T22:49:26.684Z,3.80
2019-06-29T22:51:47.427Z,3.72
2019-06-29T22:54:16.998Z,3.15
2019-06-29T22:56:45.994Z,3.40
2019-06-29T22:59:15.828Z,3.90
2019-06-29T23:01:53.019Z,3.83
2019-06-29T23:04:22.574Z,4.05
2019-06-29T23:06:54.197Z,3.72
2019-06-29T23:09:23.212Z,4.37
2019-06-29T23:11:52.112Z,4.20
2019-06-29T23:14:26.470Z,3.60
2019-06-29T23:16:56.680Z,3.92
2019-06-29T23:19:35.416Z,3.98
2019-06-29T23:22:04.449Z,3.65
2019-06-29T23:24:36.783Z,3.63
2019-06-29T23:27:17.345Z,3.83
2019-06-29T23:29:46.939Z,3.87
2019-06-29T23:32:19.381Z,3.87
2019-06-29T23:34:49.796Z,3.60
2019-06-29T23:37:19.350Z,3.83
2019-06-29T23:39:49.337Z,4.67
2019-06-29T23:42:18.223Z,3.50
2019-06-29T23:44:47.130Z,4.22
2019-06-29T23:47:16.127Z,4.10
2019-06-29T23:49:45.978Z,3.65
2019-06-29T23:52:20.031Z,3.60
2019-06-29T23:54:51.240Z,3.70
2019-06-29T23:57:20.101Z,3.90
2019-06-29T23:59:49.126Z,3.80
